Airfield :
LOGIN :

Register | Disclaimer

   EN    FR    IT 

 










Legend :    VFR   Marginal VFR   IFR   Intensive IFR   Very Intensive IFR
Visi :
Ceiling :
>= 8 km
>= 3000ft
5 to 8 km
1000 to 3000 ft
1500m to 5 km
500 to 1000 ft
800 to 1500m
200 to 500 ft
< 800m
< 200 ft
Symbols :   Thunderstorms  Fog  Heavy snow  Heavy precipitations  Wind > 20 kt
SIGMETs :     Misc.  Thunderstorms  Icing  Turbulence  Mountain Waves  Volcanic Ashes






- Airport Elevation : 209 ft
- IATA code : CLY


LFKC - Calvi

CURRENT METAR :
  • 021630Z AUTO 35006KT 320V020 9999 FEW070 SCT100 12/02 Q1012 NOSIG

EXPIRED METARs :
  • 021600Z AUTO 35005KT 310V020 9999 FEW045 12/03 Q1012 NOSIG
  • 021530Z AUTO 35007KT 320V020 9999 FEW046 SCT056 13/03 Q1012 NOSIG
  • 021500Z AUTO 35007KT 320V020 9999 SCT048 BKN120 13/03 Q1012 NOSIG
  • 021430Z AUTO 35008KT 320V020 9999 FEW048 13/03 Q1012 NOSIG
  • 021400Z AUTO 35007KT 320V030 9999 BKN098 14/03 Q1012 NOSIG

TAF TAF LFKC
Valid from the 02 at 15:00 until the 03 at 15:00 UTC


021400Z 0215/0315 35010KT 9999 BKN070 TX15/0312Z TN03/0305Z
BECMG 0218/0219 17004KT
BECMG 0308/0310 36010KT CAVOK
ATIS : +33 4 95 65 82 49



MET'MAP, your aeronautical weather chart ! - Copyright ORBIFLY December 2007 - Disclaimer

ORBIFLY MET'MAP TEAM :

Programming & Development : Alexandra Zaïnal
Concept & original design : Baudouin d'Aumeries
Assistance for programming : Marc-Olivier Méhu
Technical & hardware support : Manuel Goepfert

Contact : metmap@orbifly.com




SOURCES & CREDITS :

   NOAA